createdAt,value
2017-06-24T00:02:16.950Z,15.60
2017-06-24T00:04:44.443Z,15.60
2017-06-24T00:07:11.937Z,15.50
2017-06-24T00:09:39.419Z,15.60
2017-06-24T00:12:06.929Z,15.60
2017-06-24T00:14:34.806Z,15.70
2017-06-24T00:17:02.299Z,15.70
2017-06-24T00:19:30.080Z,15.60
2017-06-24T00:21:57.565Z,15.70
2017-06-24T00:24:25.440Z,15.70
2017-06-24T00:26:53.443Z,15.70
2017-06-24T00:29:20.924Z,15.70
2017-06-24T00:31:48.407Z,15.70
2017-06-24T00:34:16.267Z,15.70
2017-06-24T00:36:44.144Z,15.70
2017-06-24T00:39:11.647Z,15.70
2017-06-24T00:41:39.452Z,15.60
2017-06-24T00:44:07.328Z,15.70
2017-06-24T00:46:34.827Z,15.70
2017-06-24T00:49:02.435Z,15.70
2017-06-24T00:51:29.923Z,15.80
2017-06-24T00:53:57.399Z,15.70
2017-06-24T00:56:24.907Z,15.70
2017-06-24T00:58:52.788Z,15.70
2017-06-24T01:01:20.268Z,15.70
2017-06-24T01:03:48.084Z,15.80
2017-06-24T01:06:15.583Z,15.70
2017-06-24T01:08:43.064Z,15.70
2017-06-24T01:11:10.715Z,15.70
2017-06-24T01:13:38.210Z,15.70
2017-06-24T01:16:06.083Z,15.70
2017-06-24T01:18:33.995Z,15.70
2017-06-24T01:21:01.496Z,15.70
2017-06-24T01:23:29.011Z,15.60
2017-06-24T01:25:56.532Z,15.60
2017-06-24T01:28:25.178Z,15.60
2017-06-24T01:30:52.657Z,15.60
2017-06-24T01:33:20.405Z,15.60
2017-06-24T01:35:48.270Z,15.70
2017-06-24T01:38:16.140Z,15.60
2017-06-24T01:40:44.316Z,15.70
2017-06-24T01:43:12.176Z,15.70
2017-06-24T01:45:40.042Z,15.60
2017-06-24T01:48:07.917Z,15.60
2017-06-24T01:50:35.781Z,15.60
2017-06-24T01:53:03.269Z,15.60
2017-06-24T01:55:30.762Z,15.60
2017-06-24T01:57:58.230Z,15.60
2017-06-24T02:00:25.696Z,15.70
2017-06-24T02:02:53.578Z,15.70
2017-06-24T02:05:21.065Z,15.70
2017-06-24T02:07:48.544Z,15.70
2017-06-24T02:10:16.329Z,15.70
2017-06-24T02:12:44.188Z,15.70
2017-06-24T02:15:11.657Z,15.70
2017-06-24T02:17:39.912Z,15.70
2017-06-24T02:20:07.377Z,15.70
2017-06-24T02:22:35.240Z,15.70
2017-06-24T02:25:03.126Z,15.70
2017-06-24T02:27:30.985Z,15.70
2017-06-24T02:29:58.848Z,15.70
2017-06-24T02:32:26.827Z,15.70
2017-06-24T02:34:54.299Z,15.70
2017-06-24T02:37:21.770Z,15.70
2017-06-24T02:39:49.510Z,15.70
2017-06-24T02:42:16.984Z,15.70
2017-06-24T02:44:44.452Z,15.70
2017-06-24T02:47:11.949Z,15.70
2017-06-24T02:49:39.812Z,15.70
2017-06-24T02:52:07.677Z,15.70
2017-06-24T02:54:35.558Z,15.70
2017-06-24T02:57:03.033Z,15.70
2017-06-24T02:59:30.516Z,15.70
2017-06-24T03:01:58.001Z,15.70
2017-06-24T03:04:25.460Z,15.70
2017-06-24T03:06:53.337Z,15.70
2017-06-24T03:09:21.241Z,15.80
2017-06-24T03:11:48.705Z,15.80
2017-06-24T03:14:16.194Z,15.80
2017-06-24T03:16:43.696Z,15.80
2017-06-24T03:19:11.163Z,15.80
2017-06-24T03:21:38.636Z,15.80
2017-06-24T03:24:06.324Z,15.70
2017-06-24T03:26:34.203Z,15.70
2017-06-24T03:29:01.680Z,15.70
2017-06-24T03:31:29.270Z,15.80
2017-06-24T03:33:56.736Z,15.80
2017-06-24T03:36:24.206Z,15.70
2017-06-24T03:38:51.876Z,15.70
2017-06-24T03:41:19.342Z,15.70
2017-06-24T03:43:47.205Z,15.70
2017-06-24T03:46:15.098Z,15.80
2017-06-24T03:48:42.564Z,15.80
2017-06-24T03:51:10.033Z,15.80
2017-06-24T03:53:37.775Z,15.70
2017-06-24T03:56:05.257Z,15.70
2017-06-24T03:58:32.721Z,15.80
2017-06-24T04:01:00.406Z,15.80
2017-06-24T04:03:28.268Z,15.80
2017-06-24T04:05:56.134Z,15.80
2017-06-24T04:08:23.627Z,15.80
2017-06-24T04:10:51.088Z,15.80
2017-06-24T04:13:18.553Z,15.80
2017-06-24T04:15:46.033Z,15.80
2017-06-24T04:18:13.508Z,15.80
2017-06-24T04:20:40.976Z,15.80
2017-06-24T04:23:08.882Z,15.90
2017-06-24T04:25:36.354Z,15.90
2017-06-24T04:28:03.818Z,15.90
2017-06-24T04:30:31.350Z,15.80
2017-06-24T04:32:58.807Z,15.90
2017-06-24T04:35:26.272Z,15.80
2017-06-24T04:37:53.774Z,15.80
2017-06-24T04:40:21.269Z,15.80
2017-06-24T04:42:48.927Z,15.80
2017-06-24T04:45:16.740Z,15.90
2017-06-24T04:47:44.613Z,15.80
2017-06-24T04:50:12.493Z,15.80
2017-06-24T04:52:40.390Z,15.80
2017-06-24T04:55:07.855Z,15.80
2017-06-24T04:57:35.325Z,15.80
2017-06-24T05:00:02.825Z,15.90
2017-06-24T05:02:31.024Z,15.90
2017-06-24T05:04:58.488Z,15.90
2017-06-24T05:07:27.121Z,15.90
2017-06-24T05:09:54.593Z,15.90
2017-06-24T05:12:22.462Z,15.90
2017-06-24T05:14:49.974Z,16.00
2017-06-24T05:17:17.436Z,16.00
2017-06-24T05:19:44.906Z,16.00
2017-06-24T05:22:13.078Z,16.00
2017-06-24T05:24:40.545Z,16.00
2017-06-24T05:27:08.404Z,16.10
2017-06-24T05:29:36.622Z,16.00
2017-06-24T05:32:04.080Z,16.00
2017-06-24T05:34:31.562Z,16.10
2017-06-24T05:36:59.250Z,16.10
2017-06-24T05:39:27.114Z,16.10
2017-06-24T05:41:54.977Z,16.10
2017-06-24T05:44:22.880Z,16.20
2017-06-24T05:46:50.358Z,16.20
2017-06-24T05:49:17.829Z,16.10
2017-06-24T05:51:45.334Z,16.20
2017-06-24T05:54:12.797Z,16.20
2017-06-24T05:56:40.269Z,16.20
2017-06-24T05:59:08.744Z,16.20
2017-06-24T06:01:37.150Z,16.20
2017-06-24T06:04:04.625Z,16.20
2017-06-24T06:06:32.108Z,16.30
2017-06-24T06:08:59.582Z,16.30
2017-06-24T06:11:27.057Z,16.30
2017-06-24T06:13:54.561Z,16.30
2017-06-24T06:16:22.426Z,16.30
2017-06-24T06:18:49.912Z,16.30
2017-06-24T06:21:17.732Z,16.20
2017-06-24T06:23:45.200Z,16.20
2017-06-24T06:26:12.690Z,16.20
2017-06-24T06:28:40.185Z,16.30
2017-06-24T06:31:08.064Z,16.20
2017-06-24T06:33:35.536Z,16.20
2017-06-24T06:36:03.403Z,16.30
2017-06-24T06:38:31.248Z,16.30
2017-06-24T06:40:58.722Z,16.20
2017-06-24T06:43:26.586Z,16.30
2017-06-24T06:45:54.096Z,16.30
2017-06-24T06:48:21.565Z,16.30
2017-06-24T06:50:49.032Z,16.30
2017-06-24T06:53:17.541Z,16.40
2017-06-24T06:55:45.017Z,16.40
2017-06-24T06:58:12.505Z,16.50
2017-06-24T07:00:40.010Z,16.50
2017-06-24T07:03:07.472Z,16.50
2017-06-24T07:05:34.953Z,16.50
2017-06-24T07:08:02.645Z,16.40
2017-06-24T07:10:30.106Z,16.30
2017-06-24T07:12:57.573Z,16.40
2017-06-24T07:15:25.457Z,16.30
2017-06-24T07:17:52.930Z,16.30
2017-06-24T07:20:20.445Z,16.30
2017-06-24T07:22:48.355Z,16.40
2017-06-24T07:25:15.824Z,16.40
2017-06-24T07:27:43.313Z,16.40
2017-06-24T07:30:10.981Z,16.40
2017-06-24T07:32:38.453Z,16.40
2017-06-24T07:35:06.317Z,16.40
2017-06-24T07:37:34.276Z,16.40
2017-06-24T07:40:02.715Z,16.40
2017-06-24T07:42:30.184Z,16.40
2017-06-24T07:44:58.174Z,16.30
2017-06-24T07:47:26.040Z,16.30
2017-06-24T07:49:53.913Z,16.40
2017-06-24T07:52:21.410Z,16.40
2017-06-24T07:54:49.996Z,16.40
2017-06-24T07:57:17.464Z,16.40
2017-06-24T07:59:44.973Z,16.40
2017-06-24T08:02:12.447Z,16.40
2017-06-24T08:04:40.470Z,16.40
2017-06-24T08:07:08.229Z,16.40
2017-06-24T08:09:36.109Z,16.50
2017-06-24T08:12:03.972Z,16.60
2017-06-24T08:14:31.848Z,16.60
2017-06-24T08:16:59.324Z,16.60
2017-06-24T08:19:26.796Z,16.50
2017-06-24T08:21:54.294Z,16.50
2017-06-24T08:24:21.761Z,16.50
2017-06-24T08:26:50.601Z,16.40
2017-06-24T08:29:18.241Z,16.40
2017-06-24T08:31:45.740Z,16.40
2017-06-24T08:34:13.227Z,16.30
2017-06-24T08:36:41.121Z,16.40
2017-06-24T08:39:08.589Z,16.40
2017-06-24T08:41:36.053Z,16.40
2017-06-24T08:44:03.801Z,16.40
2017-06-24T08:46:31.268Z,16.40
2017-06-24T08:48:58.742Z,16.40
2017-06-24T08:51:26.332Z,16.40
2017-06-24T08:53:53.816Z,16.30
2017-06-24T08:56:21.300Z,16.30
2017-06-24T08:58:48.877Z,16.30
2017-06-24T09:01:16.349Z,16.30
2017-06-24T09:03:44.227Z,16.40
2017-06-24T09:06:11.736Z,16.40
2017-06-24T09:08:39.220Z,16.30
2017-06-24T09:11:07.126Z,16.30
2017-06-24T09:13:34.949Z,16.30
2017-06-24T09:16:02.817Z,16.30
2017-06-24T09:18:30.282Z,16.30
2017-06-24T09:20:58.177Z,16.30
2017-06-24T09:23:25.649Z,16.40
2017-06-24T09:25:53.123Z,16.30
2017-06-24T09:28:20.818Z,16.40
2017-06-24T09:30:48.681Z,16.30
2017-06-24T09:33:16.548Z,16.40
2017-06-24T09:35:44.066Z,16.40
2017-06-24T09:38:11.544Z,16.40
2017-06-24T09:40:39.424Z,16.30
2017-06-24T09:43:07.580Z,16.30
2017-06-24T09:45:35.448Z,16.20
2017-06-24T09:48:03.312Z,16.20
2017-06-24T09:50:31.224Z,16.20
2017-06-24T09:52:58.717Z,16.20
2017-06-24T09:55:26.196Z,16.20
2017-06-24T09:57:54.190Z,16.20
2017-06-24T10:00:21.718Z,16.20
2017-06-24T10:02:49.202Z,16.20
2017-06-24T10:05:16.742Z,16.30
2017-06-24T10:07:44.246Z,16.30
2017-06-24T10:10:11.721Z,16.30
2017-06-24T10:12:39.501Z,16.30
2017-06-24T10:15:08.185Z,16.30
2017-06-24T10:17:36.062Z,16.20
2017-06-24T10:20:04.130Z,16.30
2017-06-24T10:22:32.002Z,16.30
2017-06-24T10:25:00.125Z,16.30
2017-06-24T10:27:27.657Z,16.30
2017-06-24T10:29:55.167Z,16.30
2017-06-24T10:32:23.053Z,16.50
2017-06-24T10:34:51.121Z,16.50
2017-06-24T10:37:19.007Z,16.60
2017-06-24T10:39:46.502Z,16.60
2017-06-24T10:42:14.038Z,16.60
2017-06-24T10:44:41.516Z,16.60
2017-06-24T10:47:08.998Z,16.60
2017-06-24T10:49:37.427Z,16.60
2017-06-24T10:52:04.933Z,16.60
2017-06-24T10:54:32.840Z,16.60
2017-06-24T10:57:00.371Z,16.60
2017-06-24T10:59:28.237Z,16.50
2017-06-24T11:01:55.720Z,16.50
2017-06-24T11:04:23.484Z,16.50
2017-06-24T11:06:50.966Z,16.50
2017-06-24T11:09:18.470Z,16.60
2017-06-24T11:11:48.008Z,16.60
2017-06-24T11:14:16.037Z,16.60
2017-06-24T11:16:43.534Z,16.50
2017-06-24T11:19:11.048Z,16.60
2017-06-24T11:21:38.618Z,16.60
2017-06-24T11:24:06.095Z,16.70
2017-06-24T11:26:34.473Z,16.70
2017-06-24T11:29:01.989Z,16.70
2017-06-24T11:31:29.465Z,16.70
2017-06-24T11:33:56.975Z,16.90
2017-06-24T11:36:24.580Z,16.90
2017-06-24T11:38:52.138Z,17.00
2017-06-24T11:41:19.620Z,16.90
2017-06-24T11:43:47.134Z,17.00
2017-06-24T11:46:14.657Z,17.00
2017-06-24T11:48:42.133Z,17.10
2017-06-24T11:51:10.770Z,17.10
2017-06-24T11:53:38.308Z,17.10
2017-06-24T11:56:05.796Z,17.20
2017-06-24T11:58:33.280Z,17.20
2017-06-24T12:12:26.349Z,17.20
2017-06-24T12:14:53.822Z,16.80
2017-06-24T12:17:21.309Z,16.80
2017-06-24T12:19:49.205Z,16.80
2017-06-24T12:22:16.750Z,16.80
2017-06-24T12:24:44.906Z,16.70
2017-06-24T12:27:12.394Z,16.70
2017-06-24T12:29:39.861Z,16.70
2017-06-24T12:32:07.672Z,16.70
2017-06-24T12:34:35.632Z,16.60
2017-06-24T12:37:03.104Z,16.60
2017-06-24T12:39:31.069Z,16.70
2017-06-24T12:41:58.543Z,16.70
2017-06-24T12:44:26.410Z,16.50
2017-06-24T12:46:54.592Z,16.50
2017-06-24T12:49:22.066Z,16.50
2017-06-24T12:51:49.552Z,16.50
2017-06-24T12:54:17.163Z,16.50
2017-06-24T12:56:44.636Z,16.50
2017-06-24T12:59:12.341Z,16.60
2017-06-24T13:01:40.268Z,16.60
2017-06-24T13:04:07.769Z,16.60
2017-06-24T13:06:35.652Z,16.60
2017-06-24T13:09:03.550Z,16.70
2017-06-24T13:11:31.053Z,16.70
2017-06-24T13:13:58.543Z,16.70
2017-06-24T13:16:26.079Z,16.80
2017-06-24T13:18:53.950Z,16.90
2017-06-24T13:21:21.759Z,16.90
2017-06-24T13:23:49.264Z,17.00
2017-06-24T13:26:17.397Z,17.10
2017-06-24T13:28:45.711Z,17.10
2017-06-24T13:31:13.221Z,17.20
2017-06-24T13:33:40.714Z,17.20
2017-06-24T13:36:08.192Z,17.10
2017-06-24T13:38:35.975Z,17.20
2017-06-24T13:41:03.459Z,17.30
2017-06-24T13:43:30.957Z,17.20
2017-06-24T13:45:58.584Z,16.90
2017-06-24T13:48:26.064Z,16.80
2017-06-24T13:50:53.937Z,16.60
2017-06-24T13:53:21.458Z,16.60
2017-06-24T13:55:48.964Z,16.50
2017-06-24T13:58:16.458Z,16.30
2017-06-24T14:00:44.144Z,16.30
2017-06-24T14:03:12.016Z,16.50
2017-06-24T14:05:39.481Z,16.50
2017-06-24T14:08:07.264Z,16.70
2017-06-24T14:10:34.740Z,17.00
2017-06-24T14:13:02.235Z,17.30
2017-06-24T14:15:30.036Z,17.80
2017-06-24T14:17:57.524Z,18.10
2017-06-24T14:20:24.996Z,17.80
2017-06-24T14:22:52.499Z,17.60
2017-06-24T14:25:19.962Z,17.60
2017-06-24T14:27:47.464Z,17.40
2017-06-24T14:30:15.148Z,17.40
2017-06-24T14:32:42.620Z,17.70
2017-06-24T14:35:10.111Z,18.00
2017-06-24T14:37:37.615Z,18.40
2017-06-24T14:40:05.089Z,18.30
2017-06-24T14:42:32.572Z,18.60
2017-06-24T14:45:00.397Z,18.80
2017-06-24T14:47:27.882Z,19.00
2017-06-24T14:49:55.345Z,19.00
2017-06-24T14:52:23.264Z,19.00
2017-06-24T14:54:50.851Z,18.90
2017-06-24T14:57:18.339Z,18.90
2017-06-24T14:59:46.131Z,19.10
2017-06-24T15:02:13.611Z,19.20
2017-06-24T15:04:41.088Z,19.20
2017-06-24T15:07:08.728Z,19.50
2017-06-24T15:09:36.228Z,19.40
2017-06-24T15:12:03.725Z,19.20
2017-06-24T15:14:31.310Z,19.00
2017-06-24T15:16:58.789Z,19.10
2017-06-24T15:19:26.285Z,19.10
2017-06-24T15:21:54.292Z,19.00
2017-06-24T15:24:22.112Z,18.90
2017-06-24T15:26:49.597Z,19.00
2017-06-24T15:29:17.406Z,19.20
2017-06-24T15:31:44.882Z,19.20
2017-06-24T15:34:12.370Z,19.20
2017-06-24T15:36:40.149Z,19.30
2017-06-24T15:39:07.642Z,19.30
2017-06-24T15:41:35.122Z,19.30
2017-06-24T15:44:02.732Z,19.20
2017-06-24T15:46:30.200Z,19.20
2017-06-24T15:48:57.673Z,19.30
2017-06-24T15:51:26.309Z,19.20
2017-06-24T15:53:53.773Z,19.00
2017-06-24T15:56:21.249Z,18.80
2017-06-24T15:58:48.968Z,19.00
2017-06-24T16:01:16.471Z,18.90
2017-06-24T16:03:43.945Z,18.90
2017-06-24T16:06:12.377Z,18.90
2017-06-24T16:08:39.857Z,18.90
2017-06-24T16:11:07.337Z,19.10
2017-06-24T16:13:35.037Z,19.30
2017-06-24T16:16:02.544Z,19.20
2017-06-24T16:18:30.045Z,19.00
2017-06-24T16:21:01.891Z,18.80
2017-06-24T16:23:30.270Z,18.70
2017-06-24T16:25:57.857Z,18.50
2017-06-24T16:28:25.348Z,18.40
2017-06-24T16:30:52.840Z,18.30
2017-06-24T16:33:20.619Z,18.30
2017-06-24T16:35:48.109Z,18.20
2017-06-24T16:38:16.580Z,18.20
2017-06-24T16:40:44.730Z,18.30
2017-06-24T16:43:12.581Z,18.50
2017-06-24T16:45:40.380Z,18.70
2017-06-24T16:48:07.883Z,18.70
2017-06-24T16:50:35.346Z,18.60
2017-06-24T16:53:02.837Z,18.40
2017-06-24T16:55:30.580Z,18.50
2017-06-24T16:57:58.082Z,18.40
2017-06-24T17:00:26.030Z,18.40
2017-06-24T17:02:53.533Z,18.50
2017-06-24T17:05:21.042Z,18.50
2017-06-24T17:07:48.548Z,18.40
2017-06-24T17:10:16.049Z,18.40
2017-06-24T17:12:43.534Z,18.40
2017-06-24T17:15:11.405Z,18.30
2017-06-24T17:17:38.988Z,18.40
2017-06-24T17:20:06.469Z,18.40
2017-06-24T17:22:33.943Z,18.30
2017-06-24T17:25:01.693Z,18.30
2017-06-24T17:27:29.163Z,18.10
2017-06-24T17:29:57.233Z,18.20
2017-06-24T17:32:26.085Z,18.10
2017-06-24T17:34:53.575Z,18.00
2017-06-24T17:37:21.942Z,17.80
2017-06-24T17:39:50.611Z,17.70
2017-06-24T17:42:18.081Z,17.80
2017-06-24T17:44:45.854Z,17.70
2017-06-24T17:47:14.229Z,17.80
2017-06-24T17:49:43.469Z,17.90
2017-06-24T17:52:10.966Z,17.90
2017-06-24T17:54:38.500Z,17.90
2017-06-24T17:57:06.359Z,17.80
2017-06-24T17:59:34.820Z,17.80
2017-06-24T18:02:02.527Z,17.80
2017-06-24T18:04:30.053Z,17.80
2017-06-24T18:06:57.537Z,17.80
2017-06-24T18:09:25.645Z,17.80
2017-06-24T18:11:53.900Z,17.70
2017-06-24T18:14:21.386Z,17.60
2017-06-24T18:16:48.877Z,17.80
2017-06-24T18:19:16.744Z,17.60
2017-06-24T18:21:45.126Z,17.60
2017-06-24T18:24:12.904Z,17.60
2017-06-24T18:26:41.036Z,17.50
2017-06-24T18:29:09.018Z,17.50
2017-06-24T18:31:37.019Z,17.40
2017-06-24T18:34:04.517Z,17.50
2017-06-24T18:36:31.996Z,17.40
2017-06-24T18:38:59.873Z,17.30
2017-06-24T18:41:28.242Z,17.30
2017-06-24T18:43:55.759Z,17.30
2017-06-24T18:46:24.427Z,17.30
2017-06-24T18:48:51.894Z,17.30
2017-06-24T18:51:19.991Z,17.30
2017-06-24T18:53:47.811Z,17.20
2017-06-24T18:56:16.197Z,17.10
2017-06-24T18:58:44.291Z,17.10
2017-06-24T19:01:12.077Z,17.10
2017-06-24T19:03:39.975Z,16.90
2017-06-24T19:06:07.470Z,16.90
2017-06-24T19:08:35.852Z,16.80
2017-06-24T19:11:03.336Z,16.70
2017-06-24T19:13:31.448Z,16.80
2017-06-24T19:15:59.298Z,16.70
2017-06-24T19:18:27.903Z,16.80
2017-06-24T19:20:55.413Z,16.90
2017-06-24T19:23:23.579Z,16.80
2017-06-24T19:25:51.080Z,16.90
2017-06-24T19:28:18.981Z,16.90
2017-06-24T19:30:47.191Z,16.80
2017-06-24T19:33:15.656Z,16.80
2017-06-24T19:35:43.395Z,16.80
2017-06-24T19:38:12.402Z,16.80
2017-06-24T19:40:39.965Z,16.80
2017-06-24T19:43:08.344Z,16.60
2017-06-24T19:45:37.616Z,16.60
2017-06-24T19:48:05.098Z,16.70
2017-06-24T19:50:33.614Z,16.40
2017-06-24T19:53:01.411Z,16.40
2017-06-24T19:55:29.321Z,16.40
2017-06-24T19:57:56.780Z,16.40
2017-06-24T20:00:24.285Z,16.30
2017-06-24T20:02:51.787Z,16.20
2017-06-24T20:05:19.270Z,16.30
2017-06-24T20:10:21.339Z,16.20
2017-06-24T20:12:49.796Z,16.10
2017-06-24T20:15:17.305Z,16.00
2017-06-24T20:17:45.510Z,16.10
2017-06-24T20:20:13.434Z,16.20
2017-06-24T20:22:41.232Z,16.30
2017-06-24T20:25:09.128Z,16.30
2017-06-24T20:27:36.904Z,16.30
2017-06-24T20:30:04.408Z,16.30
2017-06-24T20:32:32.297Z,16.30
2017-06-24T20:35:00.064Z,16.30
2017-06-24T20:37:27.530Z,16.30
2017-06-24T20:39:55.058Z,16.20
2017-06-24T20:42:22.941Z,16.20
2017-06-24T20:44:50.401Z,16.20
2017-06-24T20:47:17.890Z,16.10
2017-06-24T20:49:45.391Z,16.10
2017-06-24T20:52:13.278Z,16.10
2017-06-24T20:54:40.781Z,16.10
2017-06-24T20:57:08.289Z,16.00
2017-06-24T20:59:35.763Z,16.00
2017-06-24T21:02:03.243Z,15.90
2017-06-24T21:04:30.996Z,15.90
2017-06-24T21:06:58.763Z,15.80
2017-06-24T21:09:26.224Z,15.80
2017-06-24T21:11:53.927Z,15.90
2017-06-24T21:14:21.896Z,15.90
2017-06-24T21:16:49.409Z,15.90
2017-06-24T21:19:17.107Z,16.00
2017-06-24T21:21:46.306Z,16.00
2017-06-24T21:24:14.171Z,15.90
2017-06-24T21:26:42.343Z,15.90
2017-06-24T21:29:10.836Z,15.90
2017-06-24T21:31:38.311Z,15.90
2017-06-24T21:34:05.823Z,15.80
2017-06-24T21:36:33.304Z,15.80
2017-06-24T21:39:01.093Z,15.80
2017-06-24T21:41:28.800Z,15.80
2017-06-24T21:43:56.281Z,15.80
2017-06-24T21:46:23.740Z,15.80
2017-06-24T21:48:51.236Z,15.80
2017-06-24T21:51:18.692Z,15.70
2017-06-24T21:53:47.159Z,15.70
2017-06-24T21:56:14.861Z,15.80
2017-06-24T21:58:42.519Z,15.80
2017-06-24T22:01:10.407Z,15.80
2017-06-24T22:03:38.557Z,15.70
2017-06-24T22:06:06.039Z,15.70
2017-06-24T22:08:33.898Z,15.80
2017-06-24T22:11:01.559Z,15.80
2017-06-24T22:13:29.012Z,15.80
2017-06-24T22:15:56.552Z,15.80
2017-06-24T22:18:24.691Z,15.80
2017-06-24T22:20:52.146Z,15.80
2017-06-24T22:23:19.597Z,15.70
2017-06-24T22:25:47.273Z,15.70
2017-06-24T22:28:14.726Z,15.70
2017-06-24T22:30:42.171Z,15.70
2017-06-24T22:33:09.634Z,15.70
2017-06-24T22:35:37.084Z,15.70
2017-06-24T22:38:04.519Z,15.70
2017-06-24T22:40:32.296Z,15.70
2017-06-24T22:42:59.736Z,15.70
2017-06-24T22:45:27.171Z,15.70
2017-06-24T22:47:54.640Z,15.70
2017-06-24T22:50:22.092Z,15.70
2017-06-24T22:52:49.531Z,15.70
2017-06-24T22:55:17.000Z,15.70
2017-06-24T22:57:44.442Z,15.60
2017-06-24T23:00:11.882Z,15.70
2017-06-24T23:02:39.732Z,15.60
2017-06-24T23:05:07.569Z,15.60
2017-06-24T23:07:35.013Z,15.60
2017-06-24T23:10:02.483Z,15.60
2017-06-24T23:12:29.923Z,15.60
2017-06-24T23:14:57.363Z,15.60
2017-06-24T23:17:25.145Z,15.60
2017-06-24T23:19:53.455Z,15.60
2017-06-24T23:22:21.295Z,15.80
2017-06-24T23:24:48.768Z,15.80
2017-06-24T23:27:16.210Z,15.80
2017-06-24T23:29:43.647Z,15.80
2017-06-24T23:32:11.106Z,16.10
2017-06-24T23:34:38.575Z,16.30
2017-06-24T23:37:06.025Z,16.30
2017-06-24T23:39:33.467Z,16.40
2017-06-24T23:42:00.911Z,16.40
2017-06-24T23:44:28.355Z,16.40
2017-06-24T23:46:56.138Z,16.20
2017-06-24T23:49:23.582Z,16.10
2017-06-24T23:51:51.019Z,16.10
2017-06-24T23:54:18.811Z,16.20
2017-06-24T23:56:46.260Z,16.30
2017-06-24T23:59:13.699Z,16.30
